Date,TemperatureHighF,TemperatureAvgF,TemperatureLowF,DewpointHighF,DewpointAvgF,DewpointLowF,HumidityHigh,HumidityAvg,HumidityLow,PressureMaxIn,PressureMinIn,WindSpeedMaxMPH,WindSpeedAvgMPH,GustSpeedMaxMPH,PrecipitationSumIn
2012-1-1,64.0,45.5,32.0,46.0,33.1,12.0,98,66,33,0.00,40.00,16,5,24,0.00
2012-1-2,39.0,30.8,24.0,30.0,20.7,12.0,98,65,34,0.00,40.00,12,6,24,0.00
2012-1-3,29.0,24.6,19.0,19.0,16.3,12.0,91,67,49,0.00,40.00,9,4,17,0.00
2012-1-4,40.0,28.7,17.0,30.0,19.2,12.0,93,67,36,0.00,40.00,7,1,14,0.00
2012-1-5,52.0,39.4,29.0,32.0,18.3,-99.9,89,50,31,0.00,40.00,6,-57,12,0.00
2012-1-6,66.0,50.6,36.0,32.0,28.9,23.0,76,44,24,0.00,40.00,9,2,14,0.00
2012-1-7,62.0,52.7,36.0,52.0,34.2,19.0,88,53,22,0.00,40.00,11,2,14,0.00
2012-1-8,51.0,37.9,27.0,32.0,28.2,23.0,95,70,32,0.00,40.00,3,0,14,0.00
2012-1-9,54.0,41.4,33.0,37.0,30.9,27.0,93,67,40,0.00,40.00,3,0,4,0.00
2012-1-10,55.0,39.9,27.0,36.0,31.9,27.0,99,77,38,0.00,40.00,4,1,4,0.00
2012-1-11,55.0,42.8,31.0,52.0,40.5,30.0,98,94,84,0.00,40.00,4,1,6,0.00
2012-1-12,53.0,45.5,25.0,52.0,40.4,19.0,98,85,69,0.00,40.00,17,6,21,0.00
2012-1-13,28.0,24.2,20.0,25.0,17.9,10.0,84,74,63,0.00,40.00,14,8,21,0.00
2012-1-14,36.0,29.7,24.0,27.0,19.2,14.0,82,63,41,0.00,40.00,8,4,19,0.00
2012-1-15,39.0,30.6,23.0,28.0,22.2,18.0,88,70,46,0.00,40.00,6,1,8,0.00
2012-1-16,58.0,45.1,21.0,34.0,28.1,19.0,97,55,31,0.00,40.00,9,3,14,0.00
2012-1-17,64.0,54.6,39.0,55.0,42.7,25.0,97,67,42,0.00,40.00,12,6,15,0.00
2012-1-18,39.0,33.3,26.0,28.0,21.3,16.0,76,59,44,0.00,40.00,7,3,15,0.00
2012-1-19,44.0,33.2,22.0,28.0,22.2,18.0,91,65,36,0.00,40.00,7,2,12,0.00
2012-1-20,37.0,32.1,24.0,32.0,24.0,16.0,82,69,56,0.00,40.00,4,1,10,0.00
2012-1-21,37.0,32.9,30.0,32.0,31.0,28.0,95,90,80,0.00,40.00,3,1,6,0.00
2012-1-22,52.0,38.3,30.0,45.0,35.8,30.0,98,91,81,0.00,40.00,2,1,4,0.00
2012-1-23,68.0,57.2,47.0,54.0,45.8,36.0,97,70,44,0.00,40.00,14,5,19,0.00
2012-1-24,56.0,45.0,32.0,39.0,30.0,-99.9,86,64,42,0.00,40.00,8,-32,19,0.00
2012-1-25,47.0,38.4,31.0,41.0,28.4,-99.9,93,77,64,0.00,40.00,4,-39,12,0.00
2012-1-26,62.0,48.8,40.0,59.0,43.0,-99.9,95,88,85,0.00,40.00,4,-20,6,0.00
2012-1-27,61.0,43.6,40.0,57.0,34.7,-99.9,94,81,75,0.00,40.00,9,-31,14,0.00
2012-1-28,48.0,40.2,33.0,39.0,25.5,-99.9,94,63,29,0.00,40.00,10,-18,14,0.00
2012-1-29,52.0,37.5,29.0,25.0,14.2,-99.9,73,44,23,0.00,40.00,14,-40,22,0.00
2012-1-30,61.0,45.2,26.0,28.0,24.0,-99.9,85,47,25,0.00,40.00,8,-7,22,0.00
2012-1-31,69.0,53.4,43.0,30.0,18.9,-99.9,58,29,18,0.00,40.00,9,-46,14,0.00
2012-2-1,62.0,55.8,48.0,54.0,46.5,-99.9,94,76,23,0.00,40.00,11,-5,14,0.00
2012-2-2,60.0,47.1,41.0,54.0,31.6,-99.9,98,70,37,0.00,40.00,6,-61,10,0.00
2012-2-3,58.0,40.9,28.0,36.0,26.9,-99.9,98,68,29,0.00,40.00,3,-35,10,0.00
2012-2-4,48.0,41.1,39.0,43.0,32.5,-99.9,95,80,58,0.00,40.00,2,-28,6,0.00
2012-2-5,53.0,39.0,32.0,41.0,25.3,-99.9,97,74,41,0.00,40.00,3,-69,6,0.00
2012-2-6,50.0,37.6,28.0,37.0,30.4,-99.9,100,80,46,0.00,40.00,4,-8,6,0.00
2012-2-7,54.0,38.9,27.0,36.0,31.1,27.0,98,76,41,0.00,40.00,6,1,8,0.00
2012-2-8,40.0,36.2,34.0,36.0,31.2,27.0,97,82,69,0.00,40.00,6,1,8,0.00
2012-2-9,41.0,36.7,33.0,32.0,26.5,21.0,89,65,47,0.00,40.00,2,1,8,0.00
2012-2-10,40.0,35.6,33.0,32.0,29.8,27.0,95,79,62,0.00,40.00,4,1,6,0.00
2012-2-11,34.0,27.0,20.0,32.0,19.4,7.0,97,73,41,0.00,40.00,14,6,17,0.00
2012-2-12,38.0,30.0,20.0,21.0,16.5,9.0,84,55,40,0.00,40.00,9,5,17,0.00
2012-2-13,43.0,36.9,23.0,30.0,21.5,16.0,82,54,37,0.00,40.00,4,1,4,0.00
2012-2-14,44.0,38.8,34.0,39.0,34.0,23.0,95,85,58,0.00,40.00,5,1,6,0.00
2012-2-15,57.0,45.9,36.0,39.0,33.9,32.0,86,66,44,0.00,40.00,5,1,6,0.00
2012-2-16,55.0,49.9,45.0,50.0,45.2,36.0,95,87,62,0.00,40.00,6,2,10,0.00
2012-2-17,55.0,44.8,36.0,39.0,30.7,23.0,90,62,28,0.00,40.00,7,2,14,0.00
2012-2-18,58.0,43.0,28.0,32.0,30.1,25.0,97,64,33,0.00,40.00,9,2,14,0.00
2012-2-19,42.0,38.2,33.0,28.0,25.2,23.0,66,57,47,0.00,40.00,2,1,14,0.00
2012-2-20,50.0,36.6,25.0,28.0,24.2,19.0,85,61,31,0.00,40.00,5,1,8,0.00
2012-2-21,58.0,45.0,28.0,41.0,32.5,25.0,93,64,40,0.00,40.00,14,4,17,0.00
2012-2-22,62.0,50.9,38.0,46.0,37.3,30.0,85,64,29,0.00,40.00,12,3,17,0.00
2012-2-23,63.0,51.7,40.0,48.0,43.5,37.0,97,78,50,0.00,40.00,6,1,14,0.00
2012-2-24,57.0,48.2,37.0,55.0,38.6,25.0,98,73,33,0.00,40.00,20,6,24,0.00
2012-2-25,40.0,35.3,27.0,32.0,18.8,10.0,78,50,31,0.00,40.00,14,6,24,0.00
2012-2-26,55.0,36.1,21.0,28.0,20.9,14.0,93,59,20,0.00,40.00,5,1,21,0.00
2012-2-27,69.0,50.3,30.0,34.0,28.3,23.0,82,46,25,0.00,40.00,10,3,14,0.00
2012-2-28,65.0,46.9,30.0,36.0,26.4,21.0,84,48,19,0.00,40.00,5,1,14,0.00
2012-2-29,69.0,58.7,47.0,63.0,51.3,27.0,94,80,41,0.00,40.00,8,3,12,0.00
2012-3-1,65.0,52.9,40.0,52.0,30.8,-99.9,86,49,33,0.00,40.00,11,-30,14,0.00
2012-3-2,64.0,43.6,32.0,59.0,29.2,-99.9,98,78,47,0.00,40.00,11,-96,21,0.00
2012-3-3,57.0,43.3,38.0,39.0,18.7,-99.9,75,47,27,0.00,40.00,12,-79,21,0.00
2012-3-4,42.0,32.2,32.0,32.0,13.7,-99.9,93,61,45,0.00,40.00,11,-101,15,0.00
2012-3-5,42.0,32.6,32.0,32.0,17.1,-99.9,97,69,41,0.00,40.00,9,-88,15,0.00
2012-3-6,65.0,38.5,26.0,36.0,13.2,-99.9,94,53,20,0.00,40.00,5,-109,14,0.00
2012-3-7,73.0,52.6,39.0,39.0,23.3,-99.9,78,41,27,0.00,40.00,11,-76,17,0.00
2012-3-8,67.0,57.4,44.0,57.0,43.0,-99.9,94,66,46,0.00,40.00,10,-17,17,0.00
2012-3-9,55.0,44.8,35.0,37.0,28.7,19.0,89,57,29,0.00,40.00,9,2,14,0.00
2012-3-10,57.0,41.1,28.0,27.0,21.4,16.0,80,48,22,0.00,40.00,4,1,14,0.00
2012-3-11,70.0,50.1,29.0,39.0,31.8,28.0,94,55,20,0.00,40.00,1,0,4,0.00
2012-3-12,72.0,59.0,48.0,59.0,47.1,32.0,88,69,40,0.00,40.00,6,1,8,0.00
2012-3-13,81.0,68.2,60.0,59.0,54.1,50.0,84,65,37,0.00,40.00,8,2,12,0.00
2012-3-14,85.0,64.8,46.0,54.0,48.0,43.0,97,64,24,0.00,40.00,5,1,12,0.00
2012-3-15,69.0,60.9,51.0,63.0,54.6,46.0,98,84,68,0.00,40.00,6,2,10,0.00
2012-3-16,76.0,65.8,57.0,61.0,55.9,52.0,95,74,53,0.00,40.00,6,1,10,0.00
2012-3-17,79.0,66.4,58.0,59.0,56.3,54.0,94,75,46,0.00,40.00,6,1,8,0.00
2012-3-18,81.0,68.4,58.0,61.0,56.3,54.0,90,71,42,0.00,40.00,6,2,8,0.00
2012-3-19,87.0,72.4,61.0,61.0,55.4,50.0,90,62,31,0.00,40.00,3,1,8,0.00
2012-3-20,90.0,73.0,57.0,59.0,50.8,-99.9,93,56,22,0.00,40.00,4,1,6,0.00
2012-3-21,91.0,69.1,55.0,57.0,46.2,-99.9,91,55,25,0.00,40.00,4,-42,6,0.00
2012-3-22,89.0,72.0,56.0,59.0,51.7,-99.9,91,58,27,0.00,40.00,4,-13,6,0.00
2012-3-23,83.0,69.2,60.0,66.0,59.1,54.0,93,75,41,0.00,40.00,11,1,19,0.00
2012-3-24,70.0,62.2,54.0,64.0,53.9,46.0,97,79,49,0.00,40.00,8,1,19,0.00
2012-3-25,74.0,61.6,52.0,55.0,51.6,48.0,95,74,47,0.00,40.00,6,1,12,0.00
2012-3-26,67.0,57.3,46.0,55.0,40.6,21.0,97,61,18,0.00,40.00,6,1,12,0.00
2012-3-27,70.0,50.3,32.0,39.0,25.3,16.0,76,41,15,0.00,40.00,4,1,12,0.00
2012-3-28,84.0,63.9,45.0,64.0,49.6,32.0,91,64,36,0.00,40.00,13,4,17,0.00
2012-3-29,72.0,59.8,51.0,55.0,40.7,34.0,85,54,28,0.00,40.00,6,1,17,0.00
2012-3-30,82.0,61.1,46.0,59.0,46.4,37.0,86,62,37,0.00,40.00,8,2,10,0.00
2012-3-31,72.0,59.9,52.0,59.0,49.6,43.0,86,72,55,0.00,40.00,5,1,10,0.00
2012-4-1,78.0,59.0,41.0,59.0,46.2,37.0,94,68,40,0.00,40.00,7,2,12,0.00
2012-4-2,74.0,62.6,51.0,61.0,42.3,32.0,94,55,22,0.00,40.00,3,1,12,0.00
2012-4-3,86.0,66.9,45.0,57.0,42.8,36.0,88,47,28,0.00,40.00,5,1,8,0.00
2012-4-4,79.0,67.4,60.0,66.0,55.4,34.0,95,69,51,0.00,40.00,3,1,8,0.00
2012-4-5,64.0,54.9,48.0,34.0,29.5,25.0,53,38,23,0.00,40.00,4,1,6,0.00
2012-4-6,67.0,51.2,38.0,36.0,28.5,19.0,68,44,16,0.00,40.00,5,1,8,0.00
2012-4-7,72.0,52.8,34.0,32.0,24.9,16.0,85,39,12,0.00,40.00,5,1,8,0.00
2012-4-8,73.0,57.2,40.0,41.0,33.3,21.0,80,46,16,0.00,40.00,10,3,15,0.00
2012-4-9,73.0,55.7,37.0,41.0,32.1,23.0,93,49,20,0.00,40.00,13,3,21,0.00
2012-4-10,62.0,52.9,42.0,34.0,26.0,18.0,67,36,19,0.00,40.00,16,4,21,0.00
2012-4-11,55.0,43.9,35.0,30.0,26.0,23.0,66,48,34,0.00,40.00,7,2,19,0.00
2012-4-12,65.0,47.4,28.0,36.0,30.4,25.0,97,58,23,0.00,40.00,6,1,12,0.00
2012-4-13,72.0,54.1,34.0,41.0,33.4,27.0,95,54,20,0.00,40.00,4,1,10,0.00
2012-4-14,73.0,58.4,45.0,59.0,46.0,36.0,95,69,34,0.00,40.00,5,1,10,0.00
2012-4-15,88.0,68.4,49.0,55.0,48.4,-99.9,98,61,24,0.00,40.00,12,3,19,0.00
2012-4-16,83.0,74.9,63.0,59.0,52.6,46.0,78,49,29,0.00,40.00,12,5,17,0.00
2012-4-17,67.0,59.5,47.0,48.0,42.5,36.0,90,58,36,0.00,40.00,3,1,17,0.00
2012-4-18,66.0,57.4,49.0,52.0,45.9,41.0,94,68,58,0.00,40.00,3,1,4,0.00
2012-4-19,76.0,61.5,48.0,52.0,47.7,41.0,97,68,32,0.00,40.00,2,1,4,0.00
2012-4-20,81.0,63.7,45.0,55.0,49.1,43.0,97,66,34,0.00,40.00,6,2,10,0.00
2012-4-21,65.0,55.5,48.0,57.0,50.1,43.0,95,85,75,0.00,40.00,5,1,10,0.00
2012-4-22,52.0,46.8,42.0,45.0,37.6,-99.9,91,77,60,0.00,40.00,7,1,12,0.00
2012-4-23,62.0,50.4,40.0,37.0,27.1,14.0,85,45,16,0.00,40.00,14,5,21,0.00
2012-4-24,67.0,52.9,38.0,32.0,22.8,18.0,60,32,16,0.00,40.00,11,3,21,0.00
2012-4-25,65.0,56.1,48.0,54.0,44.2,30.0,94,68,44,0.00,40.00,4,1,14,0.00
2012-4-26,77.0,64.1,55.0,66.0,58.6,52.0,99,87,59,0.00,40.00,10,1,14,0.00
2012-4-27,67.0,55.1,45.0,52.0,37.2,-99.9,88,58,25,0.00,40.00,4,-6,14,0.00
2012-4-28,62.0,52.3,43.0,52.0,42.1,32.0,98,73,49,0.00,40.00,4,1,8,0.00
2012-4-29,73.0,56.6,47.0,57.0,47.8,-99.9,95,78,56,0.00,40.00,2,0,4,0.00
2012-4-30,89.0,69.4,48.0,64.0,54.5,46.0,97,67,32,0.00,40.00,9,2,12,0.00
2012-5-1,86.0,73.5,64.0,66.0,63.5,61.0,94,75,49,0.00,40.00,5,2,12,0.00
2012-5-2,93.0,76.4,62.0,66.0,61.8,57.0,94,67,33,0.00,40.00,9,2,12,0.00
2012-5-3,92.0,76.4,61.0,68.0,61.8,-99.9,97,69,36,0.00,40.00,4,-6,12,0.00
2012-5-4,85.0,73.1,64.0,72.0,66.0,61.0,98,83,55,0.00,40.00,8,1,10,0.00
2012-5-5,81.0,70.5,65.0,70.0,65.2,63.0,98,88,60,0.00,40.00,3,0,6,0.00
2012-5-6,86.0,71.7,63.0,68.0,62.7,-99.9,98,80,49,0.00,40.00,3,0,6,0.00
2012-5-7,88.0,73.1,60.0,70.0,63.7,59.0,98,78,45,0.00,40.00,8,2,15,0.00
2012-5-8,78.0,70.3,60.0,70.0,63.1,55.0,97,83,54,0.00,40.00,8,2,12,0.00
2012-5-9,76.0,64.1,57.0,59.0,50.6,-99.9,98,69,32,0.00,40.00,8,-6,12,0.00
2012-5-10,72.0,59.1,49.0,50.0,43.5,34.0,98,65,27,0.00,40.00,7,2,12,0.00
2012-5-11,76.0,58.1,41.0,48.0,40.2,32.0,97,62,22,0.00,40.00,3,1,12,0.00
2012-5-12,79.0,61.2,45.0,57.0,46.9,41.0,97,68,29,0.00,40.00,3,0,6,0.00
2012-5-13,65.0,60.9,59.0,63.0,56.9,-99.9,95,92,81,0.00,40.00,2,0,4,0.00
2012-5-14,67.0,62.5,58.0,63.0,59.1,55.0,98,92,81,0.00,40.00,2,0,2,0.00
2012-5-15,82.0,65.9,55.0,63.0,56.1,48.0,99,78,34,0.00,40.00,2,1,4,0.00
2012-5-16,87.0,69.6,52.0,61.0,53.4,45.0,98,66,25,0.00,40.00,5,1,8,0.00
2012-5-17,77.0,64.4,54.0,59.0,45.5,34.0,88,55,32,0.00,40.00,2,1,8,0.00
2012-5-18,85.0,66.1,47.0,63.0,52.7,43.0,94,68,38,0.00,40.00,3,0,4,0.00
2012-5-19,88.0,71.4,55.0,64.0,58.9,54.0,98,72,33,0.00,40.00,2,0,4,0.00
2012-5-20,86.0,71.4,58.0,68.0,57.1,-99.9,97,69,31,0.00,40.00,2,0,2,0.00
2012-5-21,92.0,72.9,59.0,66.0,57.9,46.0,97,68,24,0.00,40.00,5,1,6,0.00
2012-5-22,73.0,68.1,65.0,64.0,60.8,57.0,93,80,71,0.00,40.00,2,1,6,0.00
2012-5-23,74.0,65.0,61.0,64.0,61.1,59.0,95,90,76,0.00,40.00,1,0,4,0.00
2012-5-24,86.0,75.2,62.0,66.0,62.1,59.0,95,66,41,0.00,40.00,5,2,12,0.00
2012-5-30,87.0,79.8,67.0,62.0,57.0,53.0,70,46,34,0.00,40.00,7,-13,15,0.00
2012-5-31,68.0,57.9,54.0,57.0,54.3,53.0,94,88,61,0.00,40.00,1,0,3,0.00
2012-6-3,83.0,75.2,62.0,56.0,52.5,48.0,80,46,32,0.00,40.00,10,4,16,0.00
2012-6-4,83.0,69.5,57.0,58.0,52.7,-99.9,93,60,29,0.00,40.00,10,-5,19,0.00
2012-6-5,73.0,62.2,51.0,55.0,51.6,49.0,91,69,43,0.00,40.00,5,1,9,0.00
2012-6-6,77.0,63.8,55.0,56.0,52.1,-99.9,90,68,43,0.00,40.00,3,-6,11,0.00
2012-6-7,82.0,65.5,51.0,58.0,50.5,-99.9,95,65,27,0.00,40.00,4,-6,9,0.55
2012-6-8,89.0,69.0,52.0,56.0,51.7,45.0,94,62,22,0.00,40.00,4,1,11,0.00
2012-6-9,91.0,71.4,55.0,59.0,54.3,48.0,94,62,24,0.00,40.00,7,1,12,0.00
2012-6-10,90.0,73.5,56.0,65.0,57.1,-99.9,94,64,28,0.00,40.00,4,1,9,0.00
2012-6-11,81.0,71.7,67.0,72.0,66.2,59.0,93,82,64,0.00,40.00,5,1,9,1.10
2012-6-12,89.0,76.1,66.0,70.0,65.5,55.0,94,72,43,0.00,40.00,7,2,14,0.00
2012-6-13,83.0,69.9,57.0,57.0,52.0,47.0,86,55,30,0.00,40.00,4,1,12,0.00
2012-6-14,88.0,67.7,49.0,56.0,49.9,45.0,92,59,22,0.00,40.00,4,1,8,0.00
2012-6-15,90.0,72.5,57.0,64.0,58.4,-99.9,92,65,37,0.00,40.00,4,-6,11,0.00
2012-6-16,88.0,74.4,61.0,67.0,60.7,-99.9,89,65,43,0.00,40.00,4,-6,12,0.00
2012-6-17,81.0,70.8,66.0,73.0,64.1,-99.9,93,83,63,0.00,40.00,7,-6,17,0.55
2012-6-18,91.0,76.6,66.0,68.0,65.1,62.0,94,71,39,0.00,40.00,7,2,15,0.00
2012-6-19,95.0,78.8,65.0,68.0,64.1,60.0,94,65,32,0.00,40.00,5,1,12,0.00
2012-6-20,94.0,78.9,66.0,74.0,67.3,62.0,94,71,36,0.00,40.00,3,0,7,0.00
2012-6-21,93.0,80.8,73.0,71.0,68.4,63.0,91,69,37,0.00,40.00,4,1,15,0.00
2012-6-22,90.0,77.5,65.0,71.0,65.2,57.0,94,69,35,0.00,40.00,6,1,13,0.00
2012-6-23,93.0,75.0,60.0,65.0,59.0,48.0,94,64,24,0.00,40.00,7,1,11,0.00
2012-6-24,97.0,77.7,65.0,64.0,59.5,-99.9,90,60,24,0.00,40.00,6,-6,9,0.00
2012-6-25,90.0,75.0,63.0,65.0,57.1,44.0,93,59,23,0.00,40.00,6,1,13,0.00
2012-6-26,84.0,67.5,51.0,52.0,47.2,43.0,87,52,24,0.00,40.00,4,1,13,0.00
2012-6-27,90.0,69.4,51.0,57.0,49.4,-99.9,93,57,20,0.00,40.00,4,-6,9,0.00
2012-6-28,105.0,79.8,57.0,63.0,55.9,-99.9,94,53,21,0.00,40.00,8,-4,17,0.00
2012-6-29,106.0,84.5,70.0,71.0,64.4,59.0,88,54,27,0.00,40.00,9,2,24,1.10
2012-6-30,102.0,84.2,67.0,71.0,66.3,64.0,91,59,29,0.00,40.00,7,2,17,0.00
2012-7-1,100.0,80.4,68.0,71.0,65.2,-99.9,92,66,26,0.00,40.00,15,-6,28,2.79
2012-7-2,99.0,79.8,64.0,70.0,63.4,-99.9,93,63,27,0.00,40.00,6,-6,12,0.00
2012-7-3,101.0,83.6,70.0,69.0,65.2,56.0,92,59,24,0.00,40.00,9,2,17,0.00
2012-7-4,102.0,84.6,69.0,71.0,67.0,61.0,92,60,26,0.00,40.00,7,2,12,0.00
2012-7-5,96.0,80.8,71.0,72.0,69.4,64.0,92,70,43,0.00,40.00,7,1,17,0.55
2012-7-6,104.0,83.5,69.0,71.0,67.3,62.0,89,63,26,0.00,40.00,6,1,9,0.00
2012-7-7,107.0,87.5,71.0,72.0,67.5,55.0,93,59,19,0.00,40.00,6,1,15,0.00
2012-7-8,103.0,80.4,72.0,79.0,69.6,-99.9,94,74,30,0.00,40.00,9,-6,22,9.02
2012-7-9,83.0,74.6,68.0,71.0,66.1,-99.9,93,77,50,0.00,40.00,2,-6,9,0.00
2012-7-10,91.0,76.4,64.0,68.0,61.3,-99.9,94,66,32,0.00,40.00,4,-6,9,0.00
2012-7-11,92.0,77.8,64.0,66.0,63.4,57.0,92,65,32,0.00,40.00,7,1,16,0.00
2012-7-12,87.0,75.0,64.0,66.0,61.5,57.0,93,65,39,0.00,40.00,6,2,12,0.00
2012-7-13,74.0,69.3,65.0,70.0,65.9,61.0,94,89,66,0.00,40.00,3,1,9,8.93
2012-7-14,90.0,77.8,70.0,77.0,69.9,67.0,93,78,50,0.00,40.00,6,1,12,0.00
2012-7-15,90.0,79.3,71.0,71.0,69.4,66.0,92,73,46,0.00,40.00,7,3,19,0.55
2012-7-16,97.0,81.2,72.0,72.0,67.2,-99.9,91,67,34,0.00,40.00,6,-12,14,0.00
2012-7-17,92.0,78.9,72.0,76.0,70.8,-99.9,93,78,48,0.00,40.00,6,-6,12,0.55
2012-7-18,91.0,80.4,71.0,74.0,70.3,-99.9,93,74,52,0.00,40.00,7,-5,14,2.24
2012-7-19,89.0,74.7,68.0,73.0,69.8,66.0,94,85,56,0.00,40.00,11,1,29,0.00
2012-7-20,73.0,71.9,71.0,70.0,69.3,69.0,92,91,89,0.00,40.00,3,1,6,0.00
2012-7-21,81.0,76.4,68.0,68.0,65.9,65.0,92,71,61,0.00,40.00,3,1,6,0.00
2012-7-22,93.0,82.0,67.0,69.0,65.7,62.0,92,61,36,0.00,40.00,4,-12,11,0.00
2012-7-23,93.0,81.6,70.0,73.0,70.7,68.0,92,71,49,0.00,40.00,7,2,14,0.00
2012-7-24,84.0,78.2,71.0,75.0,70.9,68.0,94,78,67,0.00,40.00,8,2,18,3.38
2012-7-25,92.0,87.7,84.0,77.0,74.3,71.0,80,64,55,0.00,40.00,4,2,9,0.00
2012-7-26,97.0,84.5,71.0,76.0,72.0,65.0,94,67,46,0.00,40.00,17,4,32,1.65
2012-7-27,93.0,78.5,69.0,72.0,68.8,61.0,94,75,41,0.00,40.00,11,3,25,5.04
2012-7-28,88.0,75.6,65.0,68.0,64.4,62.0,92,69,46,0.00,40.00,7,2,15,0.00
2012-7-29,88.0,74.8,64.0,67.0,64.0,61.0,93,71,41,0.00,40.00,4,1,8,0.00
2012-7-30,90.0,74.3,61.0,67.0,62.8,58.0,94,71,36,0.00,40.00,4,1,9,0.00
2012-7-31,94.0,78.4,66.0,69.0,65.1,58.0,93,68,30,0.00,40.00,4,1,10,0.00
2012-8-1,94.0,80.2,69.0,71.0,67.7,61.0,92,69,33,0.00,40.00,7,1,12,0.00
2012-8-2,92.0,78.5,66.0,69.0,65.4,57.0,94,69,33,0.00,40.00,4,1,8,0.55
2012-8-3,89.0,74.3,67.0,72.0,66.7,-99.9,93,79,53,0.00,40.00,7,-6,16,0.00
2012-8-4,89.0,77.3,71.0,76.0,69.7,-99.9,94,79,57,0.00,40.00,7,-6,19,1.65
2012-8-5,87.0,79.9,76.0,72.0,70.5,69.0,85,73,57,0.00,40.00,10,4,16,0.00
2012-8-6,91.0,79.1,69.0,71.0,65.7,60.0,89,66,36,0.00,40.00,6,1,14,0.00
2012-8-7,93.0,76.4,64.0,67.0,60.9,-99.9,94,65,31,0.00,40.00,6,-6,10,0.00
2012-8-8,96.0,78.7,64.0,70.0,64.9,60.0,94,68,30,0.00,40.00,6,1,11,0.00
2012-8-9,91.0,78.1,69.0,72.0,67.5,58.0,93,72,39,0.00,40.00,12,2,21,0.00
2012-8-10,85.0,73.7,65.0,68.0,62.5,57.0,92,70,42,0.00,40.00,9,3,20,3.93
2012-8-11,78.0,66.3,56.0,61.0,55.1,-99.9,93,70,45,0.00,40.00,6,-5,14,0.00
2012-8-12,85.0,69.2,56.0,61.0,56.3,50.0,95,68,31,0.00,40.00,6,1,12,0.00
2012-8-13,85.0,71.0,60.0,66.0,58.8,-99.9,94,70,35,0.00,40.00,5,-6,11,0.00
2012-8-14,85.0,71.0,65.0,68.0,64.6,62.0,93,81,52,0.00,40.00,7,1,14,0.00
2012-8-15,86.0,70.2,65.0,66.0,63.7,57.0,94,82,38,0.00,40.00,4,1,8,0.00
2012-8-16,90.0,74.7,60.0,66.0,60.7,55.0,95,67,31,0.00,40.00,6,1,11,0.00
2012-8-17,81.0,72.8,66.0,67.0,64.7,62.0,93,76,60,0.00,40.00,9,2,14,1.10
2012-8-18,83.0,68.0,58.0,64.0,56.3,-99.9,94,71,32,0.00,40.00,4,-6,12,0.00
2012-8-19,84.0,69.8,59.0,61.0,57.8,51.0,94,69,33,0.00,40.00,6,1,10,0.00
2012-8-20,84.0,69.4,58.0,61.0,54.8,45.0,93,65,27,0.00,40.00,6,1,12,0.00
2012-8-21,82.0,64.9,53.0,63.0,56.1,51.0,95,77,35,0.00,40.00,7,1,17,0.00
2012-8-22,86.0,68.8,55.0,62.0,55.5,-99.9,95,69,29,0.00,40.00,3,-6,8,0.00
2012-8-23,89.0,70.6,56.0,62.0,55.1,-99.9,95,66,27,0.00,40.00,4,-6,9,0.00
2012-8-24,92.0,72.7,57.0,64.0,56.7,-99.9,94,65,24,0.00,40.00,4,-6,9,0.00
2012-8-25,93.0,74.4,61.0,65.0,59.2,-99.9,93,66,28,0.00,40.00,4,-6,9,0.00
2012-8-26,92.0,73.7,59.0,64.0,58.0,-99.9,93,64,29,0.00,40.00,4,-6,9,0.00
2012-8-27,94.0,77.6,62.0,70.0,63.8,59.0,93,66,32,0.00,40.00,8,2,16,0.00
2012-8-28,91.0,78.4,68.0,72.0,64.6,54.0,93,67,29,0.00,40.00,4,1,17,0.00
2012-8-29,89.0,73.2,61.0,62.0,57.3,51.0,91,62,27,0.00,40.00,5,1,11,0.00
2012-8-30,92.0,72.2,55.0,60.0,55.1,49.0,93,61,23,0.00,40.00,4,1,9,0.00
2012-8-31,96.0,78.3,62.0,74.0,66.2,60.0,92,69,36,0.00,40.00,9,2,14,0.00
2012-9-1,93.0,77.4,72.0,73.0,71.3,68.0,93,83,45,0.00,40.00,6,1,16,1.10
2012-9-2,89.0,77.7,70.0,74.0,70.4,68.0,94,80,55,0.00,40.00,6,1,12,1.10
2012-9-3,86.0,74.7,71.0,73.0,70.6,69.0,93,87,60,0.00,40.00,9,1,17,1.65
2012-9-4,89.0,76.8,70.0,72.0,68.5,-99.9,94,78,48,0.00,40.00,6,-6,12,0.00
2012-9-5,91.0,79.5,71.0,71.0,69.6,66.0,93,74,44,0.00,40.00,4,1,11,0.00
2012-9-6,88.0,77.5,71.0,70.0,67.1,-99.9,92,72,51,0.00,40.00,6,-5,12,0.55
2012-9-7,93.0,76.9,64.0,69.0,65.5,60.0,94,72,34,0.00,40.00,6,1,12,0.00
2012-9-8,79.0,68.6,60.0,67.0,61.0,54.0,93,77,50,0.00,40.00,11,2,26,5.63
2012-9-9,78.0,66.0,55.0,58.0,52.5,-99.9,95,67,34,0.00,40.00,7,-6,11,0.00
2012-9-10,79.0,65.0,53.0,57.0,50.0,40.0,93,63,27,0.00,40.00,3,1,9,0.00
2012-9-11,82.0,63.0,47.0,53.0,47.9,42.0,95,65,25,0.00,40.00,4,1,9,0.00
2012-9-12,87.0,66.7,50.0,60.0,54.3,49.0,94,70,31,0.00,40.00,4,1,8,0.00
2012-9-13,87.0,69.5,56.0,62.0,57.8,53.0,94,71,34,0.00,40.00,4,1,9,0.00
2012-9-14,87.0,70.5,58.0,63.0,56.9,-99.9,94,68,28,0.00,40.00,8,-5,18,0.00
2012-9-15,78.0,64.4,52.0,55.0,48.4,41.0,91,60,26,0.00,40.00,4,1,12,0.00
2012-9-16,83.0,65.4,54.0,53.0,49.4,42.0,89,62,24,0.00,40.00,4,1,9,0.00
2012-9-17,77.0,64.8,56.0,66.0,58.7,51.0,93,81,53,0.00,40.00,6,1,12,5.58
2012-9-18,71.0,66.8,59.0,65.0,60.5,49.0,95,81,55,0.00,40.00,9,2,16,4.52
2012-9-19,70.0,57.2,44.0,49.0,40.5,31.0,94,60,24,0.00,40.00,5,1,10,0.00
2012-9-20,80.0,60.2,42.0,56.0,47.8,40.0,95,69,31,0.00,40.00,7,2,14,0.00
2012-9-21,81.0,67.8,59.0,61.0,52.9,-99.9,91,64,38,0.00,40.00,7,-21,14,0.00
2012-9-22,77.0,69.9,50.0,57.0,47.5,29.0,64,46,23,0.00,40.00,11,6,24,0.00
2012-9-23,69.0,51.6,38.0,46.0,37.3,-99.9,94,64,28,0.00,40.00,7,2,12,0.00
2012-9-24,71.0,53.0,40.0,47.0,39.4,31.0,95,68,24,0.00,40.00,6,2,11,0.00
2012-9-25,62.0,53.7,42.0,58.0,49.5,41.0,94,86,58,0.00,40.00,6,1,14,5.08
2012-9-26,82.0,70.1,59.0,67.0,61.1,56.0,93,75,47,0.00,40.00,10,2,18,0.55
2012-9-27,77.0,67.7,62.0,67.0,63.0,61.0,94,85,60,0.00,40.00,7,2,14,0.00
2012-9-28,64.0,63.2,62.0,63.0,61.8,61.0,95,94,94,0.00,40.00,1,0,3,0.00
2012-9-29,74.0,64.8,52.0,51.0,47.4,43.0,92,57,33,0.00,40.00,4,1,12,0.00
2012-9-30,77.0,64.0,50.0,56.0,51.4,47.0,94,67,34,0.00,40.00,8,2,14,0.00
2012-10-1,57.0,56.1,56.0,52.0,51.5,51.0,86,84,81,0.00,40.00,1,1,4,0.00
2012-10-2,85.0,78.5,71.0,68.0,65.4,63.0,78,64,52,0.00,40.00,6,2,13,0.00
2012-10-3,78.0,68.7,60.0,63.0,56.2,51.0,89,66,40,0.00,40.00,6,-6,12,0.00
2012-10-4,80.0,67.2,57.0,57.0,54.7,51.0,94,68,37,0.00,40.00,7,2,12,0.00
2012-10-5,83.0,66.9,53.0,59.0,54.9,51.0,94,69,35,0.00,40.00,9,2,15,0.00
2012-10-6,68.0,55.7,46.0,57.0,40.5,27.0,87,60,24,0.00,40.00,12,3,20,0.00
2012-10-7,56.0,50.5,48.0,43.0,38.0,34.0,82,62,44,0.00,40.00,6,1,11,0.00
2012-10-9,59.0,51.7,42.0,44.0,42.6,40.0,92,72,54,0.00,40.00,4,1,9,0.00
2012-10-10,64.0,55.7,42.0,47.0,39.0,32.0,92,55,32,0.00,40.00,10,4,22,0.00
2012-10-11,66.0,51.6,34.0,39.0,33.2,28.0,96,54,25,0.00,40.00,5,-8,10,0.00
2012-10-12,67.0,49.9,37.0,42.0,38.4,36.0,94,69,37,0.00,40.00,4,1,9,0.00
2012-10-13,76.0,56.6,36.0,55.0,44.3,34.0,93,67,41,0.00,40.00,6,2,12,0.00
2012-10-14,79.0,69.4,61.0,58.0,54.0,50.0,73,58,44,0.00,40.00,14,4,24,0.00
2012-10-15,71.0,58.5,44.0,61.0,48.2,41.0,92,69,50,0.00,40.00,11,5,21,0.00
2012-10-16,68.0,50.6,40.0,46.0,39.8,36.0,95,71,30,0.00,40.00,5,1,11,0.00
2012-10-17,77.0,59.5,43.0,50.0,44.7,40.0,92,62,34,0.00,40.00,7,2,16,0.00
2012-10-18,64.0,59.0,45.0,52.0,45.8,38.0,94,62,41,0.00,40.00,11,3,22,0.00
2012-10-19,67.0,53.3,43.0,48.0,41.8,31.0,95,70,26,0.00,40.00,12,4,25,1.10
2012-10-20,59.0,52.5,43.0,43.0,41.7,40.0,89,67,50,0.00,40.00,11,4,19,0.00
2012-10-21,69.0,49.7,34.0,45.0,40.0,33.0,95,73,35,0.00,40.00,4,1,8,0.00
2012-10-22,82.0,59.5,40.0,51.0,45.5,38.0,93,65,31,0.00,40.00,9,2,15,0.00
2012-10-23,82.0,63.6,50.0,54.0,48.3,42.0,90,62,24,0.00,40.00,7,2,16,0.00
2012-10-24,83.0,66.4,56.0,56.0,50.7,46.0,87,61,27,0.00,40.00,6,1,14,0.00
2012-10-25,84.0,63.2,46.0,53.0,48.1,44.0,93,64,27,0.00,40.00,6,1,10,0.00
2012-10-26,79.0,60.8,48.0,55.0,49.7,45.0,90,69,40,0.00,40.00,6,1,12,0.00
2012-10-27,55.0,51.3,49.0,49.0,46.8,44.0,93,84,77,0.00,40.00,6,1,10,1.65
2012-10-28,49.0,45.1,39.0,45.0,42.7,37.0,94,91,84,0.00,40.00,7,2,16,23.55
2012-10-29,40.0,39.2,37.0,38.0,36.4,34.0,92,89,87,0.00,40.00,13,6,22,17.72
2012-10-30,41.0,37.0,34.0,38.0,35.0,32.0,94,91,88,0.00,40.00,13,6,27,12.86
2012-10-31,44.0,41.2,40.0,40.0,38.3,37.0,92,89,81,0.00,40.00,9,5,17,7.74
2012-11-1,56.0,45.9,40.0,38.0,32.3,20.0,89,62,29,0.00,40.00,12,4,20,0.00
2012-11-2,57.0,47.3,36.0,34.0,28.7,26.0,81,49,30,0.00,40.00,9,2,17,0.00
2012-11-3,50.0,38.6,29.0,41.0,32.0,28.0,94,79,47,0.00,40.00,4,1,11,3.94
2012-11-4,51.0,43.0,36.0,38.0,33.5,30.0,90,70,48,0.00,40.00,3,0,6,0.00
2012-11-5,51.0,37.8,29.0,33.0,28.5,26.0,93,72,38,0.00,40.00,4,1,7,0.00
2012-11-6,56.0,48.4,43.0,36.0,32.2,29.0,73,54,36,0.00,40.00,4,1,9,0.00
2012-11-7,60.0,47.3,37.0,36.0,32.3,28.0,86,59,28,0.00,40.00,6,1,12,0.00
2012-11-8,55.0,38.9,28.0,33.0,29.5,26.0,94,72,36,0.00,40.00,5,1,12,0.00
2012-11-9,62.0,42.4,28.0,37.0,31.9,26.0,94,70,33,0.00,40.00,5,1,10,0.00
2012-11-10,76.0,53.3,35.0,41.0,35.9,32.0,90,58,22,0.00,40.00,7,1,13,0.00
2012-11-11,75.0,54.9,34.0,43.0,36.0,29.0,93,56,18,0.00,40.00,7,1,13,0.00
2012-11-12,69.0,56.1,35.0,55.0,45.0,32.0,92,68,44,0.00,40.00,14,3,23,7.31
2012-11-13,49.0,36.8,28.0,32.0,27.4,22.0,95,72,35,0.00,40.00,5,1,11,0.00
2012-11-14,47.0,34.9,25.0,29.0,25.0,-99.9,92,70,41,0.00,40.00,5,1,12,0.00
2012-11-15,54.0,37.1,26.0,31.0,27.9,24.0,93,71,38,0.00,40.00,4,1,7,0.00
2012-11-16,56.0,38.0,26.0,32.0,28.2,25.0,95,72,32,0.00,40.00,4,1,9,0.00
2012-11-17,62.0,40.8,26.0,33.0,28.1,24.0,95,66,26,0.00,40.00,4,1,9,0.00
2012-11-18,63.0,41.6,26.0,33.0,28.3,25.0,95,65,25,0.00,40.00,4,0,11,0.00
2012-11-19,60.0,42.0,28.0,37.0,32.2,26.0,94,71,37,0.00,40.00,2,0,6,0.00
2012-11-20,64.0,47.3,34.0,38.0,34.3,30.0,92,64,27,0.00,40.00,2,0,6,0.00
2012-11-21,66.0,47.4,32.0,37.0,33.4,29.0,92,63,26,0.00,40.00,4,1,7,0.00
2012-11-22,67.0,46.1,30.0,37.0,33.9,28.0,94,68,30,0.00,40.00,5,0,9,0.00
2012-11-23,58.0,48.1,36.0,47.0,34.2,22.0,86,60,31,0.00,40.00,14,4,22,0.00
2012-11-24,37.0,34.2,30.0,22.0,19.4,18.0,67,54,48,0.00,40.00,12,3,19,0.00
2012-11-25,51.0,37.3,26.0,28.0,20.8,15.0,81,53,27,0.00,40.00,9,2,16,0.00
2012-11-26,57.0,43.7,29.0,40.0,29.8,24.0,91,60,31,0.00,40.00,4,0,7,5.07
2012-11-27,43.0,39.6,37.0,41.0,34.3,29.0,93,81,71,0.00,40.00,5,0,9,3.89
2012-11-28,48.0,36.1,26.0,31.0,26.6,20.0,92,71,35,0.00,40.00,7,2,12,0.00
2012-11-29,52.0,34.3,21.0,29.0,25.0,19.0,94,72,35,0.00,40.00,5,1,9,0.00
2012-11-30,60.0,42.5,27.0,37.0,31.9,25.0,94,70,37,0.00,40.00,7,1,17,0.00
2012-12-1,66.0,46.2,32.0,45.0,38.2,30.0,94,76,43,0.00,40.00,5,1,10,0.00
2012-12-2,67.0,52.2,39.0,56.0,46.8,37.0,95,83,49,0.00,40.00,12,1,21,6.14
2012-12-3,73.0,59.4,50.0,56.0,52.9,48.0,95,81,51,0.00,40.00,8,1,14,0.00
2012-12-4,69.0,58.1,46.0,56.0,50.1,42.0,94,75,56,0.00,40.00,12,2,24,2.20
2012-12-5,57.0,45.5,34.0,44.0,37.1,29.0,95,75,37,0.00,40.00,5,0,10,0.00
2012-12-6,54.0,40.8,28.0,47.0,31.3,-99.9,92,72,50,0.00,40.00,5,1,9,0.00
2012-12-7,54.0,52.2,50.0,52.0,49.9,46.0,95,91,78,0.00,40.00,3,0,6,12.30
2012-12-8,62.0,56.7,52.0,56.0,53.4,51.0,95,88,77,0.00,40.00,9,1,14,0.00
2012-12-9,62.0,54.5,49.0,57.0,52.3,47.0,94,91,81,0.00,40.00,3,1,9,6.14
2012-12-10,62.0,50.8,37.0,56.0,47.8,34.0,94,89,75,0.00,40.00,11,2,17,21.96
2012-12-11,39.0,35.7,29.0,34.0,27.8,22.0,90,73,55,0.00,40.00,7,2,18,0.00
2012-12-12,44.0,31.8,23.0,29.0,25.2,22.0,94,78,46,0.00,40.00,4,1,8,0.00
2012-12-13,50.0,32.6,21.0,30.0,25.1,20.0,94,77,35,0.00,40.00,3,0,8,0.00
2012-12-14,57.0,36.2,22.0,34.0,27.2,21.0,94,74,25,0.00,40.00,3,0,7,0.00
2012-12-15,56.0,44.8,31.0,42.0,34.0,29.0,91,68,42,0.00,40.00,6,1,9,0.00
2012-12-16,62.0,58.4,56.0,52.0,48.9,38.0,81,70,48,0.00,40.00,7,2,12,0.00
2012-12-17,61.0,53.7,46.0,53.0,49.0,44.0,95,84,64,0.00,40.00,7,2,19,3.94
2012-12-18,47.0,43.6,37.0,44.0,38.8,33.0,91,83,70,0.00,40.00,7,3,17,4.44
2012-12-19,54.0,42.9,33.0,39.0,35.7,31.0,93,76,55,0.00,40.00,6,1,9,0.00
2012-12-20,51.0,43.9,34.0,47.0,38.8,27.0,93,82,59,0.00,40.00,21,5,35,6.68
2012-12-21,38.0,32.7,31.0,28.0,25.0,23.0,88,73,64,0.00,40.00,18,11,32,1.65
2012-12-22,38.0,32.4,25.0,23.0,22.3,21.0,89,67,50,0.00,40.00,7,2,13,0.00
2012-12-23,54.0,39.0,22.0,30.0,26.2,20.0,92,64,35,0.00,40.00,9,2,16,0.00
2012-12-24,48.0,38.4,29.0,45.0,36.2,27.0,93,91,88,0.00,40.00,4,0,9,0.00
2012-12-25,46.0,41.9,38.0,42.0,36.6,32.0,87,81,76,0.00,40.00,7,3,15,0.00
2012-12-28,43.0,38.5,34.0,31.0,28.9,26.0,89,68,57,0.00,40.00,5,2,9,3.38
2012-12-29,34.0,33.3,33.0,33.0,31.5,31.0,94,93,90,0.00,40.00,4,1,12,1.10
2012-12-30,34.0,29.2,23.0,23.0,22.2,21.0,91,75,60,0.00,40.00,7,2,11,0.00
2012-12-31,24.0,23.2,23.0,22.0,21.3,21.0,92,92,92,0.00,40.00,1,1,2,0.00